Terminal Aerodrome Forecast
Issued by NWS Paducah, KY

Home | Current Version | Previous Version | Text Only | Print | Product List | Glossary On
Versions: 1 2 3 4 5 6 7 8 9 10 11 12 13 14 15 16 17 18 19 20
000
FTUS43 KPAH 291120
TAFEVV
TAF
KEVV 291120Z 2912/3012 05004KT P6SM SCT100 BKN250
     FM291800 06007KT P6SM SCT050 BKN100
     FM300000 07008KT P6SM VCSH SCT025 OVC050
     FM300600 08009KT 4SM -SHRA BR OVC025
     FM301000 09010KT 3SM -SHRA BR OVC020=

USA.gov is the U.S. government's official web portal to all federal, state and local government web resources and services.